createdAt,value
2018-09-17T00:01:32.050Z,98057.23
2018-09-17T00:04:02.575Z,98054.20
2018-09-17T00:06:30.936Z,98052.27
2018-09-17T00:08:58.283Z,98052.65
2018-09-17T00:11:26.937Z,98049.98
2018-09-17T00:16:31.042Z,98049.98
2018-09-17T00:18:58.325Z,98044.52
2018-09-17T00:21:29.276Z,98045.83
2018-09-17T00:23:58.588Z,98042.94
2018-09-17T00:26:29.560Z,98037.19
2018-09-17T00:28:57.991Z,98040.05
2018-09-17T00:34:07.002Z,98042.13
2018-09-17T00:36:34.915Z,98041.61
2018-09-17T00:39:02.159Z,98046.66
2018-09-17T00:41:29.102Z,98047.10
2018-09-17T00:43:57.585Z,98044.59
2018-09-17T00:46:24.373Z,98040.57
2018-09-17T00:48:51.062Z,98043.39
2018-09-17T00:51:17.589Z,98043.68
2018-09-17T00:53:44.288Z,98034.81
2018-09-17T00:56:12.643Z,98036.30
2018-09-17T00:58:40.041Z,98042.30
2018-09-17T01:01:06.735Z,98033.27
2018-09-17T01:03:34.750Z,98038.08
2018-09-17T01:06:01.445Z,98037.63
2018-09-17T01:08:29.821Z,98035.64
2018-09-17T01:13:29.173Z,98028.47
2018-09-17T01:15:55.801Z,98028.31
2018-09-17T01:18:23.603Z,98029.93
2018-09-17T01:20:50.591Z,98027.71
2018-09-17T01:23:17.525Z,98020.90
2018-09-17T01:25:44.175Z,98020.90
2018-09-17T01:28:15.191Z,98018.55
2018-09-17T01:30:41.847Z,98021.87
2018-09-17T01:33:09.645Z,98022.07
2018-09-17T01:35:39.857Z,98021.95
2018-09-17T01:38:07.312Z,98021.63
2018-09-17T01:40:34.082Z,98012.78
2018-09-17T01:45:32.810Z,98012.88
2018-09-17T01:47:59.648Z,98015.49
2018-09-17T01:50:27.153Z,98019.56
2018-09-17T01:55:26.354Z,98012.63
2018-09-17T01:57:53.218Z,98007.66
2018-09-17T02:00:19.984Z,98005.36
2018-09-17T02:02:48.110Z,98007.38
2018-09-17T02:05:14.911Z,98011.98
2018-09-17T02:07:43.078Z,98013.88
2018-09-17T02:10:10.012Z,98009.28
2018-09-17T02:12:36.970Z,98008.47
2018-09-17T02:15:03.539Z,98016.38
2018-09-17T02:17:30.470Z,98012.98
2018-09-17T02:19:57.312Z,98011.47
2018-09-17T02:22:23.967Z,98015.01
2018-09-17T02:24:50.811Z,98008.20
2018-09-17T02:27:17.645Z,98015.53
2018-09-17T02:29:44.512Z,98017.67
2018-09-17T02:32:11.733Z,98020.53
2018-09-17T02:34:38.433Z,98013.39
2018-09-17T02:37:05.076Z,98017.34
2018-09-17T02:39:32.546Z,98012.42
2018-09-17T02:42:00.205Z,98004.87
2018-09-17T02:44:27.776Z,98011.21
2018-09-17T02:46:54.987Z,98004.64
2018-09-17T02:49:22.630Z,98007.67
2018-09-17T02:51:50.726Z,98009.56
2018-09-17T02:54:19.227Z,98004.73
2018-09-17T02:56:46.370Z,98004.88
2018-09-17T02:59:13.516Z,98005.69
2018-09-17T03:01:40.736Z,97995.20
2018-09-17T03:04:09.642Z,98000.22
2018-09-17T03:06:36.574Z,98000.00
2018-09-17T03:09:03.238Z,97994.97
2018-09-17T03:11:31.515Z,98000.03
2018-09-17T03:13:58.103Z,97995.95
2018-09-17T03:16:25.379Z,98003.86
2018-09-17T03:18:52.075Z,97994.23
2018-09-17T03:21:18.870Z,97996.48
2018-09-17T03:23:46.029Z,98003.81
2018-09-17T03:26:16.869Z,98001.80
2018-09-17T03:31:18.396Z,98006.77
2018-09-17T03:33:48.785Z,98007.70
2018-09-17T03:36:16.449Z,98010.03
2018-09-17T03:38:45.221Z,98015.17
2018-09-17T03:41:12.460Z,98008.45
2018-09-17T03:48:44.493Z,98011.83
2018-09-17T03:51:12.188Z,98010.03
2018-09-17T03:53:40.324Z,98021.50
2018-09-17T03:56:07.412Z,98013.56
2018-09-17T04:01:08.443Z,98019.07
2018-09-17T04:03:36.401Z,98012.67
2018-09-17T04:06:04.056Z,98024.45
2018-09-17T04:08:35.048Z,98025.47
2018-09-17T04:11:02.861Z,98030.51
2018-09-17T04:23:39.413Z,98028.11
2018-09-17T04:26:07.900Z,98023.02
2018-09-17T04:28:35.855Z,98026.34
2018-09-17T04:31:05.518Z,98029.09
2018-09-17T04:33:33.364Z,98036.21
2018-09-17T04:36:02.199Z,98037.81
2018-09-17T04:38:29.957Z,98036.66
2018-09-17T04:41:00.338Z,98035.75
2018-09-17T04:48:34.274Z,98041.31
2018-09-17T04:53:32.959Z,98044.78
2018-09-17T04:56:00.355Z,98045.92
2018-09-17T04:58:28.321Z,98057.80
2018-09-17T05:00:56.175Z,98048.53
2018-09-17T05:05:57.708Z,98056.92
2018-09-17T05:08:28.170Z,98056.05
2018-09-17T05:10:57.187Z,98062.27
2018-09-17T05:13:27.081Z,98063.42
2018-09-17T05:18:32.567Z,98062.49
2018-09-17T05:21:01.194Z,98064.70
2018-09-17T05:23:29.047Z,98053.33
2018-09-17T05:25:57.767Z,98058.19
2018-09-17T05:28:26.613Z,98064.34
2018-09-17T05:30:57.659Z,98066.47
2018-09-17T05:33:25.601Z,98061.36
2018-09-17T05:35:55.232Z,98067.02
2018-09-17T05:38:24.024Z,98056.11
2018-09-17T05:40:52.845Z,98067.08
2018-09-17T05:43:21.655Z,98065.20
2018-09-17T05:45:50.992Z,98071.20
2018-09-17T05:48:18.805Z,98068.89
2018-09-17T05:50:46.915Z,98073.11
2018-09-17T05:53:17.184Z,98075.94
2018-09-17T05:55:46.292Z,98080.03
2018-09-17T05:58:14.705Z,98077.08
2018-09-17T06:00:43.640Z,98080.34
2018-09-17T06:03:11.985Z,98077.63
2018-09-17T06:05:39.346Z,98078.30
2018-09-17T06:08:11.983Z,98074.50
2018-09-17T06:10:43.747Z,98074.97
2018-09-17T06:13:11.583Z,98078.55
2018-09-17T06:15:41.291Z,98077.43
2018-09-17T06:18:10.255Z,98077.19
2018-09-17T06:20:40.932Z,98080.78
2018-09-17T06:23:08.028Z,98083.42
2018-09-17T06:25:36.727Z,98086.33
2018-09-17T06:30:38.419Z,98091.78
2018-09-17T06:33:09.980Z,98095.58
2018-09-17T06:35:38.792Z,98102.64
2018-09-17T06:38:07.182Z,98100.09
2018-09-17T06:40:37.193Z,98104.94
2018-09-17T06:43:04.501Z,98107.69
2018-09-17T06:45:35.817Z,98101.02
2018-09-17T06:48:03.630Z,98102.09
2018-09-17T06:50:31.749Z,98112.53
2018-09-17T06:53:00.179Z,98118.67
2018-09-17T06:55:28.836Z,98113.52
2018-09-17T06:58:02.137Z,98113.06
2018-09-17T07:00:30.389Z,98112.25
2018-09-17T07:03:00.357Z,98113.38
2018-09-17T07:07:59.471Z,98117.03
2018-09-17T07:10:28.986Z,98120.54
2018-09-17T07:12:55.681Z,98118.87
2018-09-17T07:15:23.672Z,98125.77
2018-09-17T07:17:52.433Z,98122.29
2018-09-17T07:20:22.879Z,98123.82
2018-09-17T07:22:52.861Z,98123.70
2018-09-17T07:25:19.565Z,98112.11
2018-09-17T07:27:50.468Z,98111.58
2018-09-17T07:30:17.436Z,98119.53
2018-09-17T07:32:44.829Z,98116.91
2018-09-17T07:35:12.500Z,98109.75
2018-09-17T07:37:40.427Z,98108.39
2018-09-17T07:40:11.009Z,98103.41
2018-09-17T07:42:38.716Z,98107.49
2018-09-17T07:45:07.188Z,98111.02
2018-09-17T07:47:36.234Z,98112.88
2018-09-17T07:50:04.767Z,98111.96
2018-09-17T07:52:32.666Z,98114.45
2018-09-17T07:55:01.028Z,98111.95
2018-09-17T07:57:28.169Z,98116.78
2018-09-17T07:59:59.758Z,98115.89
2018-09-17T08:04:59.664Z,98108.80
2018-09-17T08:07:27.628Z,98113.88
2018-09-17T08:09:54.379Z,98105.81
2018-09-17T08:12:22.359Z,98108.09
2018-09-17T08:14:50.540Z,98106.69
2018-09-17T08:17:17.838Z,98102.58
2018-09-17T08:22:22.181Z,98102.80
2018-09-17T08:24:50.773Z,98106.91
2018-09-17T08:27:19.131Z,98112.39
2018-09-17T08:29:49.266Z,98111.50
2018-09-17T08:32:17.647Z,98108.05
2018-09-17T08:34:45.377Z,98108.94
2018-09-17T08:37:12.709Z,98110.59
2018-09-17T08:39:40.464Z,98109.94
2018-09-17T08:42:11.786Z,98108.68
2018-09-17T08:44:41.434Z,98107.07
2018-09-17T08:47:12.406Z,98110.87
2018-09-17T08:49:42.187Z,98101.98
2018-09-17T08:52:11.701Z,98101.67
2018-09-17T08:54:40.723Z,98098.18
2018-09-17T08:57:11.178Z,98093.63
2018-09-17T08:59:39.588Z,98098.73
2018-09-17T09:02:06.909Z,98097.92
2018-09-17T09:04:35.000Z,98097.58
2018-09-17T09:07:05.521Z,98103.52
2018-09-17T09:09:34.438Z,98096.70
2018-09-17T09:12:03.115Z,98094.89
2018-09-17T09:14:30.719Z,98092.76
2018-09-17T09:17:01.464Z,98095.56
2018-09-17T09:19:29.225Z,98090.02
2018-09-17T09:21:56.711Z,98093.72
2018-09-17T09:24:25.796Z,98095.57
2018-09-17T09:26:55.832Z,98082.77
2018-09-17T09:29:26.502Z,98076.18
2018-09-17T09:31:57.953Z,98074.40
2018-09-17T09:34:28.356Z,98072.81
2018-09-17T09:36:55.769Z,98072.06
2018-09-17T09:39:29.306Z,98066.28
2018-09-17T09:41:58.559Z,98066.39
2018-09-17T09:49:33.104Z,98070.55
2018-09-17T09:52:02.746Z,98066.78
2018-09-17T09:54:33.790Z,98063.63
2018-09-17T09:57:04.104Z,98068.01
2018-09-17T09:59:35.539Z,98073.75
2018-09-17T10:02:06.173Z,98073.75
2018-09-17T10:04:35.586Z,98071.29
2018-09-17T10:09:42.115Z,98061.99
2018-09-17T10:12:10.533Z,98059.10
2018-09-17T10:14:43.538Z,98058.66
2018-09-17T10:17:13.679Z,98057.69
2018-09-17T10:19:46.240Z,98051.36
2018-09-17T10:24:45.725Z,98049.03
2018-09-17T10:27:14.820Z,98040.36
2018-09-17T10:29:46.675Z,98043.04
2018-09-17T10:34:50.089Z,98043.98
2018-09-17T10:37:17.828Z,98040.50
2018-09-17T10:39:45.832Z,98036.63
2018-09-17T10:42:14.358Z,98033.45
2018-09-17T10:47:19.553Z,98039.03
2018-09-17T10:49:48.973Z,98038.97
2018-09-17T10:52:18.155Z,98028.77
2018-09-17T10:54:44.921Z,98025.20
2018-09-17T10:59:49.744Z,98030.78
2018-09-17T11:04:49.807Z,98025.09
2018-09-17T11:07:19.996Z,98029.06
2018-09-17T11:09:51.154Z,98019.93
2018-09-17T11:12:18.443Z,98022.78
2018-09-17T11:14:51.187Z,98019.02
2018-09-17T11:24:56.618Z,98012.44
2018-09-17T11:27:24.599Z,98016.45
2018-09-17T11:29:55.948Z,98014.72
2018-09-17T11:32:22.899Z,98012.51
2018-09-17T11:40:05.605Z,98004.55
2018-09-17T11:42:34.841Z,97997.98
2018-09-17T11:45:07.075Z,97991.41
2018-09-17T11:47:36.577Z,97997.83
2018-09-17T11:52:42.221Z,98001.14
2018-09-17T11:55:11.244Z,97988.37
2018-09-17T11:57:41.306Z,97982.52
2018-09-17T12:00:08.886Z,97983.30
2018-09-17T12:05:11.337Z,97982.78
2018-09-17T12:07:39.946Z,97975.67
2018-09-17T12:10:10.146Z,97977.23
2018-09-17T12:12:37.231Z,97975.34
2018-09-17T12:15:13.031Z,97970.89
2018-09-17T12:17:41.186Z,97968.67
2018-09-17T12:20:13.425Z,97972.00
2018-09-17T12:22:41.534Z,97960.21
2018-09-17T12:27:43.978Z,97960.02
2018-09-17T12:30:15.120Z,97954.79
2018-09-17T12:32:45.912Z,97952.59
2018-09-17T12:35:15.763Z,97952.57
2018-09-17T12:37:47.021Z,97948.64
2018-09-17T12:40:16.264Z,97958.65
2018-09-17T12:42:49.596Z,97950.38
2018-09-17T12:45:17.743Z,97946.91
2018-09-17T12:47:48.589Z,97942.84
2018-09-17T12:57:53.739Z,97935.09
2018-09-17T13:00:20.787Z,97932.45
2018-09-17T13:05:21.468Z,97925.69
2018-09-17T13:07:50.865Z,97919.01
2018-09-17T13:10:19.458Z,97926.86
2018-09-17T13:12:48.176Z,97925.52
2018-09-17T13:15:17.128Z,97923.05
2018-09-17T13:17:46.447Z,97925.86
2018-09-17T13:20:19.039Z,97917.54
2018-09-17T13:22:48.720Z,97917.95
2018-09-17T13:27:50.905Z,97916.05
2018-09-17T13:30:22.299Z,97912.85
2018-09-17T13:32:51.619Z,97910.14
2018-09-17T13:35:20.399Z,97913.54
2018-09-17T13:37:50.020Z,97917.89
2018-09-17T13:43:20.752Z,97911.34
2018-09-17T13:48:32.966Z,97911.09
2018-09-17T13:51:00.869Z,97908.38
2018-09-17T13:53:36.499Z,97909.80
2018-09-17T13:56:05.628Z,97906.23
2018-09-17T13:58:33.456Z,97910.41
2018-09-17T14:01:02.132Z,97909.19
2018-09-17T14:03:37.919Z,97905.47
2018-09-17T14:06:11.257Z,97907.63
2018-09-17T14:08:44.210Z,97905.22
2018-09-17T14:11:19.100Z,97897.37
2018-09-17T14:13:49.973Z,97890.64
2018-09-17T14:16:17.692Z,97881.32
2018-09-17T14:21:32.453Z,97884.01
2018-09-17T14:24:02.198Z,97885.73
2018-09-17T14:34:12.688Z,97876.52
2018-09-17T14:39:19.559Z,97880.41
2018-09-17T14:41:48.335Z,97877.36
2018-09-17T14:44:16.688Z,97882.09
2018-09-17T14:49:24.943Z,97883.52
2018-09-17T14:51:55.567Z,97877.59
2018-09-17T14:54:23.888Z,97878.05
2018-09-17T15:04:47.890Z,97868.76
2018-09-17T15:07:17.317Z,97869.53
2018-09-17T15:09:49.778Z,97870.53
2018-09-17T15:15:07.867Z,97862.47
2018-09-17T15:17:41.160Z,97863.70
2018-09-17T15:20:11.330Z,97865.09
2018-09-17T15:22:44.929Z,97868.98
2018-09-17T15:27:45.202Z,97863.78
2018-09-17T15:30:13.855Z,97859.58
2018-09-17T15:32:50.472Z,97869.14
2018-09-17T15:35:18.232Z,97860.64
2018-09-17T15:40:19.060Z,97867.37
2018-09-17T15:42:49.277Z,97861.53
2018-09-17T15:45:17.379Z,97860.00
2018-09-17T15:47:50.953Z,97860.39
2018-09-17T15:53:03.965Z,97858.59
2018-09-17T15:55:40.264Z,97863.38
2018-09-17T16:00:47.767Z,97871.50
2018-09-17T16:03:16.237Z,97865.08
2018-09-17T16:05:51.827Z,97863.55
2018-09-17T16:08:22.992Z,97863.01
2018-09-17T16:10:52.288Z,97865.38
2018-09-17T16:13:22.297Z,97868.97
2018-09-17T16:15:50.992Z,97865.03
2018-09-17T16:18:18.511Z,97860.37
2018-09-17T16:26:00.688Z,97864.39
2018-09-17T16:36:12.605Z,97873.58
2018-09-17T16:38:40.173Z,97878.19
2018-09-17T16:41:14.326Z,97881.42
2018-09-17T16:43:41.535Z,97881.42
2018-09-17T16:46:10.128Z,97884.55
2018-09-17T16:51:13.146Z,97884.70
2018-09-17T16:53:44.231Z,97883.25
2018-09-17T16:56:15.620Z,97885.00
2018-09-17T16:58:46.406Z,97888.84
2018-09-17T17:03:49.904Z,97890.16
2018-09-17T17:06:17.708Z,97896.68
2018-09-17T17:11:21.076Z,97891.69
2018-09-17T17:13:52.901Z,97893.69
2018-09-17T17:16:23.395Z,97897.51
2018-09-17T17:18:57.780Z,97904.59
2018-09-17T17:24:02.044Z,97900.47
2018-09-17T17:26:29.976Z,97905.69
2018-09-17T17:28:58.119Z,97909.35
2018-09-17T17:31:25.829Z,97911.84
2018-09-17T17:33:54.363Z,97911.77
2018-09-17T17:36:23.519Z,97911.03
2018-09-17T17:38:51.538Z,97912.90
2018-09-17T17:41:22.390Z,97917.51
2018-09-17T17:43:57.421Z,97924.90
2018-09-17T17:46:27.644Z,97931.67
2018-09-17T17:48:55.860Z,97933.82
2018-09-17T17:54:00.353Z,97932.47
2018-09-17T17:56:31.333Z,97942.19
2018-09-17T18:01:33.288Z,97946.48
2018-09-17T18:04:06.499Z,97948.89
2018-09-17T18:06:35.782Z,97947.80
2018-09-17T18:09:03.337Z,97949.95
2018-09-17T18:11:32.802Z,97953.48
2018-09-17T18:14:02.165Z,97946.75
2018-09-17T18:19:03.288Z,97947.28
2018-09-17T18:21:32.608Z,97956.43
2018-09-17T18:26:37.895Z,97958.33
2018-09-17T18:29:07.128Z,97966.39
2018-09-17T18:31:36.000Z,97969.89
2018-09-17T18:36:39.685Z,97970.99
2018-09-17T18:39:08.113Z,97968.28
2018-09-17T18:41:37.763Z,97970.43
2018-09-17T18:44:08.444Z,97970.46
2018-09-17T18:46:40.326Z,97971.53
2018-09-17T18:49:09.951Z,97970.44
2018-09-17T18:51:38.876Z,97964.55
2018-09-17T18:56:40.991Z,97968.02
2018-09-17T19:02:01.008Z,97958.59
2018-09-17T19:04:28.375Z,97962.91
2018-09-17T19:06:56.701Z,97964.81
2018-09-17T19:09:27.213Z,97964.78
2018-09-17T19:12:00.726Z,97970.41
2018-09-17T19:14:34.719Z,97965.52
2018-09-17T19:17:04.155Z,97969.81
2018-09-17T19:19:32.695Z,97965.04
2018-09-17T19:22:00.457Z,97965.05
2018-09-17T19:24:28.779Z,97969.32
2018-09-17T19:29:30.848Z,97971.92
2018-09-17T19:31:58.733Z,97972.95
2018-09-17T19:34:31.188Z,97972.70
2018-09-17T19:37:05.178Z,97982.73
2018-09-17T19:39:37.111Z,97985.89
2018-09-17T19:42:05.585Z,97982.00
2018-09-17T19:44:36.502Z,97978.66
2018-09-17T19:47:06.922Z,97986.70
2018-09-17T19:49:35.259Z,97983.23
2018-09-17T19:52:02.866Z,97980.59
2018-09-17T19:54:31.490Z,97981.17
2018-09-17T19:57:01.370Z,97981.54
2018-09-17T19:59:31.258Z,97982.89
2018-09-17T20:01:59.735Z,97989.58
2018-09-17T20:04:31.150Z,97982.56
2018-09-17T20:09:31.522Z,97983.06
2018-09-17T20:11:59.803Z,97985.48
2018-09-17T20:14:35.356Z,97980.58
2018-09-17T20:17:05.500Z,97983.59
2018-09-17T20:19:34.560Z,97985.26
2018-09-17T20:22:03.698Z,97984.70
2018-09-17T20:27:07.344Z,97985.22
2018-09-17T20:29:35.811Z,97976.70
2018-09-17T20:32:06.875Z,97980.69
2018-09-17T20:34:35.046Z,97979.44
2018-09-17T20:37:03.426Z,97980.56
2018-09-17T20:47:10.819Z,97977.77
2018-09-17T20:49:42.455Z,97975.02
2018-09-17T20:54:43.776Z,97984.01
2018-09-17T20:57:15.561Z,97982.87
2018-09-17T20:59:48.715Z,97983.23
2018-09-17T21:02:17.691Z,97979.72
2018-09-17T21:04:45.791Z,97974.86
2018-09-17T21:07:16.143Z,97981.03
2018-09-17T21:09:42.907Z,97972.48
2018-09-17T21:12:10.650Z,97975.46
2018-09-17T21:14:41.187Z,97970.00
2018-09-17T21:17:12.271Z,97972.05
2018-09-17T21:22:13.422Z,97969.69
2018-09-17T21:24:43.295Z,97974.48
2018-09-17T21:27:11.769Z,97971.23
2018-09-17T21:29:40.843Z,97972.02
2018-09-17T21:32:12.157Z,97974.01
2018-09-17T21:37:12.821Z,97966.86
2018-09-17T21:39:42.653Z,97965.06
2018-09-17T21:42:14.136Z,97973.05
2018-09-17T21:47:16.034Z,97977.27
2018-09-17T21:49:43.814Z,97980.13
2018-09-17T21:52:11.957Z,97982.76
2018-09-17T21:54:40.127Z,97986.47
2018-09-17T21:59:40.395Z,97977.19
2018-09-17T22:02:11.263Z,97975.48
2018-09-17T22:04:45.006Z,97974.83
2018-09-17T22:07:13.381Z,97969.11
2018-09-17T22:09:45.243Z,97968.09
2018-09-17T22:12:13.872Z,97968.80
2018-09-17T22:14:43.546Z,97966.72
2018-09-17T22:17:11.923Z,97966.80
2018-09-17T22:22:15.328Z,97965.27
2018-09-17T22:24:43.908Z,97961.13
2018-09-17T22:27:13.579Z,97960.02
2018-09-17T22:29:42.313Z,97958.69
2018-09-17T22:34:44.368Z,97952.92
2018-09-17T22:37:18.875Z,97957.16
2018-09-17T22:39:46.633Z,97951.00
2018-09-17T22:47:26.673Z,97949.22
2018-09-17T22:49:55.096Z,97949.49
2018-09-17T23:00:00.828Z,97942.20
2018-09-17T23:02:29.896Z,97941.33
2018-09-17T23:04:57.784Z,97941.41
2018-09-17T23:07:25.336Z,97937.86
2018-09-17T23:09:55.264Z,97940.28
2018-09-17T23:14:58.610Z,97935.22
2018-09-17T23:17:27.070Z,97934.16
2018-09-17T23:19:57.267Z,97934.59
2018-09-17T23:22:27.029Z,97929.28
2018-09-17T23:27:28.113Z,97930.63
2018-09-17T23:29:55.861Z,97933.75
2018-09-17T23:32:27.233Z,97940.52
2018-09-17T23:34:59.708Z,97939.84
2018-09-17T23:37:28.738Z,97938.06
2018-09-17T23:39:55.783Z,97940.20
2018-09-17T23:42:24.318Z,97936.57
2018-09-17T23:44:52.206Z,97935.45
2018-09-17T23:47:20.791Z,97932.89
2018-09-17T23:52:23.622Z,97928.98
2018-09-17T23:54:52.018Z,97938.18
2018-09-17T23:57:19.928Z,97934.55
2018-09-17T23:59:49.340Z,97937.75
